sensor_id;sensor_type;location;lat;lon;timestamp;P1;durP1;ratioP1;P2;durP2;ratioP2
60243;SDS011;46106;51.468;5.814;2023-03-16T00:02:09;9.07;;;3.53;;
60243;SDS011;46106;51.468;5.814;2023-03-16T00:04:35;13.70;;;3.13;;
60243;SDS011;46106;51.468;5.814;2023-03-16T00:07:02;5.45;;;3.17;;
60243;SDS011;46106;51.468;5.814;2023-03-16T00:09:29;6.45;;;2.97;;
60243;SDS011;46106;51.468;5.814;2023-03-16T00:11:57;7.72;;;3.58;;
60243;SDS011;46106;51.468;5.814;2023-03-16T00:14:24;24.17;;;4.25;;
60243;SDS011;46106;51.468;5.814;2023-03-16T00:16:50;6.72;;;3.55;;
60243;SDS011;46106;51.468;5.814;2023-03-16T00:19:16;8.57;;;3.33;;
60243;SDS011;46106;51.468;5.814;2023-03-16T00:21:41;8.77;;;2.92;;
60243;SDS011;46106;51.468;5.814;2023-03-16T00:24:07;8.60;;;3.22;;
60243;SDS011;46106;51.468;5.814;2023-03-16T00:26:32;3.97;;;3.50;;
60243;SDS011;46106;51.468;5.814;2023-03-16T00:28:58;6.38;;;3.67;;
60243;SDS011;46106;51.468;5.814;2023-03-16T00:31:23;4.43;;;3.53;;
60243;SDS011;46106;51.468;5.814;2023-03-16T00:33:49;11.35;;;3.30;;
60243;SDS011;46106;51.468;5.814;2023-03-16T00:36:15;7.82;;;3.63;;
60243;SDS011;46106;51.468;5.814;2023-03-16T00:38:41;10.20;;;3.42;;
60243;SDS011;46106;51.468;5.814;2023-03-16T00:41:11;8.43;;;3.60;;
60243;SDS011;46106;51.468;5.814;2023-03-16T00:43:39;9.68;;;3.72;;
60243;SDS011;46106;51.468;5.814;2023-03-16T00:46:07;10.48;;;3.63;;
60243;SDS011;46106;51.468;5.814;2023-03-16T00:48:38;4.53;;;2.85;;
60243;SDS011;46106;51.468;5.814;2023-03-16T00:51:07;6.45;;;3.90;;
60243;SDS011;46106;51.468;5.814;2023-03-16T00:53:34;5.72;;;3.22;;
60243;SDS011;46106;51.468;5.814;2023-03-16T00:56:01;8.48;;;3.33;;
60243;SDS011;46106;51.468;5.814;2023-03-16T00:58:31;8.82;;;3.45;;
60243;SDS011;46106;51.468;5.814;2023-03-16T01:01:00;12.38;;;3.45;;
60243;SDS011;46106;51.468;5.814;2023-03-16T01:03:29;5.97;;;3.03;;
60243;SDS011;46106;51.468;5.814;2023-03-16T01:05:55;10.57;;;3.83;;
60243;SDS011;46106;51.468;5.814;2023-03-16T01:08:27;4.88;;;3.25;;
60243;SDS011;46106;51.468;5.814;2023-03-16T01:10:53;5.80;;;3.70;;
60243;SDS011;46106;51.468;5.814;2023-03-16T01:13:22;7.13;;;3.60;;
60243;SDS011;46106;51.468;5.814;2023-03-16T01:15:50;4.47;;;3.20;;
60243;SDS011;46106;51.468;5.814;2023-03-16T01:18:16;5.18;;;2.80;;
60243;SDS011;46106;51.468;5.814;2023-03-16T01:20:42;4.70;;;3.40;;
60243;SDS011;46106;51.468;5.814;2023-03-16T01:23:14;5.35;;;3.42;;
60243;SDS011;46106;51.468;5.814;2023-03-16T01:25:42;5.32;;;3.42;;
60243;SDS011;46106;51.468;5.814;2023-03-16T01:28:08;8.60;;;2.92;;
60243;SDS011;46106;51.468;5.814;2023-03-16T01:30:34;5.43;;;3.40;;
60243;SDS011;46106;51.468;5.814;2023-03-16T01:32:59;4.18;;;2.65;;
60243;SDS011;46106;51.468;5.814;2023-03-16T01:35:25;4.90;;;3.28;;
60243;SDS011;46106;51.468;5.814;2023-03-16T01:37:50;4.38;;;3.15;;
60243;SDS011;46106;51.468;5.814;2023-03-16T01:40:16;5.72;;;3.13;;
60243;SDS011;46106;51.468;5.814;2023-03-16T01:42:45;11.32;;;3.33;;
60243;SDS011;46106;51.468;5.814;2023-03-16T01:48:17;3.63;;;2.50;;
60243;SDS011;46106;51.468;5.814;2023-03-16T01:50:43;4.88;;;2.72;;
60243;SDS011;46106;51.468;5.814;2023-03-16T01:53:09;5.57;;;2.80;;
60243;SDS011;46106;51.468;5.814;2023-03-16T01:55:35;5.90;;;3.20;;
60243;SDS011;46106;51.468;5.814;2023-03-16T01:58:01;4.35;;;3.10;;
60243;SDS011;46106;51.468;5.814;2023-03-16T02:00:27;3.95;;;2.50;;
60243;SDS011;46106;51.468;5.814;2023-03-16T02:03:02;4.40;;;2.88;;
60243;SDS011;46106;51.468;5.814;2023-03-16T02:05:42;3.45;;;2.53;;
60243;SDS011;46106;51.468;5.814;2023-03-16T02:08:12;4.03;;;2.88;;
60243;SDS011;46106;51.468;5.814;2023-03-16T02:10:38;6.10;;;2.75;;
60243;SDS011;46106;51.468;5.814;2023-03-16T02:13:10;4.68;;;2.47;;
60243;SDS011;46106;51.468;5.814;2023-03-16T02:15:37;3.65;;;2.45;;
60243;SDS011;46106;51.468;5.814;2023-03-16T02:18:03;7.32;;;2.97;;
60243;SDS011;46106;51.468;5.814;2023-03-16T02:23:00;4.85;;;2.28;;
60243;SDS011;46106;51.468;5.814;2023-03-16T02:25:42;5.45;;;2.90;;
60243;SDS011;46106;51.468;5.814;2023-03-16T02:28:30;4.50;;;2.60;;
60243;SDS011;46106;51.468;5.814;2023-03-16T02:31:01;2.85;;;1.77;;
60243;SDS011;46106;51.468;5.814;2023-03-16T02:33:28;3.45;;;2.45;;
60243;SDS011;46106;51.468;5.814;2023-03-16T02:35:56;2.58;;;2.28;;
60243;SDS011;46106;51.468;5.814;2023-03-16T02:38:24;4.47;;;2.45;;
60243;SDS011;46106;51.468;5.814;2023-03-16T02:40:57;5.18;;;2.20;;
60243;SDS011;46106;51.468;5.814;2023-03-16T02:43:29;2.45;;;2.22;;
60243;SDS011;46106;51.468;5.814;2023-03-16T02:45:58;8.10;;;2.40;;
60243;SDS011;46106;51.468;5.814;2023-03-16T02:48:37;5.82;;;2.53;;
60243;SDS011;46106;51.468;5.814;2023-03-16T02:51:08;5.20;;;2.70;;
60243;SDS011;46106;51.468;5.814;2023-03-16T02:53:34;5.43;;;2.72;;
60243;SDS011;46106;51.468;5.814;2023-03-16T02:56:00;4.88;;;2.80;;
60243;SDS011;46106;51.468;5.814;2023-03-16T02:58:27;4.43;;;2.53;;
60243;SDS011;46106;51.468;5.814;2023-03-16T03:00:52;5.15;;;2.45;;
60243;SDS011;46106;51.468;5.814;2023-03-16T03:03:18;5.25;;;2.83;;
60243;SDS011;46106;51.468;5.814;2023-03-16T03:05:43;4.45;;;2.83;;
60243;SDS011;46106;51.468;5.814;2023-03-16T03:08:09;4.15;;;2.78;;
60243;SDS011;46106;51.468;5.814;2023-03-16T03:10:35;3.53;;;2.17;;
60243;SDS011;46106;51.468;5.814;2023-03-16T03:13:00;3.97;;;2.55;;
60243;SDS011;46106;51.468;5.814;2023-03-16T03:15:25;6.97;;;2.67;;
60243;SDS011;46106;51.468;5.814;2023-03-16T03:17:52;4.00;;;2.50;;
60243;SDS011;46106;51.468;5.814;2023-03-16T03:20:18;3.28;;;2.00;;
60243;SDS011;46106;51.468;5.814;2023-03-16T03:22:45;5.90;;;2.63;;
60243;SDS011;46106;51.468;5.814;2023-03-16T03:25:14;6.00;;;2.42;;
60243;SDS011;46106;51.468;5.814;2023-03-16T03:27:41;4.53;;;2.45;;
60243;SDS011;46106;51.468;5.814;2023-03-16T03:30:12;3.88;;;2.72;;
60243;SDS011;46106;51.468;5.814;2023-03-16T03:32:39;4.22;;;2.55;;
60243;SDS011;46106;51.468;5.814;2023-03-16T03:35:05;5.22;;;2.92;;
60243;SDS011;46106;51.468;5.814;2023-03-16T03:37:31;4.40;;;2.72;;
60243;SDS011;46106;51.468;5.814;2023-03-16T03:39:57;5.07;;;2.03;;
60243;SDS011;46106;51.468;5.814;2023-03-16T03:42:22;4.40;;;2.60;;
60243;SDS011;46106;51.468;5.814;2023-03-16T03:44:49;2.80;;;2.28;;
60243;SDS011;46106;51.468;5.814;2023-03-16T03:47:15;3.85;;;2.28;;
60243;SDS011;46106;51.468;5.814;2023-03-16T03:49:41;5.85;;;2.40;;
60243;SDS011;46106;51.468;5.814;2023-03-16T03:52:07;4.72;;;2.10;;
60243;SDS011;46106;51.468;5.814;2023-03-16T03:54:32;3.75;;;2.40;;
60243;SDS011;46106;51.468;5.814;2023-03-16T03:56:58;2.75;;;2.00;;
60243;SDS011;46106;51.468;5.814;2023-03-16T03:59:23;5.40;;;2.53;;
60243;SDS011;46106;51.468;5.814;2023-03-16T04:01:51;5.38;;;2.20;;
60243;SDS011;46106;51.468;5.814;2023-03-16T04:04:18;3.72;;;2.50;;
60243;SDS011;46106;51.468;5.814;2023-03-16T04:06:44;4.18;;;2.65;;
60243;SDS011;46106;51.468;5.814;2023-03-16T04:09:09;4.15;;;2.53;;
60243;SDS011;46106;51.468;5.814;2023-03-16T04:11:35;3.80;;;2.30;;
60243;SDS011;46106;51.468;5.814;2023-03-16T04:14:01;4.20;;;2.80;;
60243;SDS011;46106;51.468;5.814;2023-03-16T04:16:27;4.22;;;2.97;;
60243;SDS011;46106;51.468;5.814;2023-03-16T04:18:53;2.55;;;2.25;;
60243;SDS011;46106;51.468;5.814;2023-03-16T04:21:19;3.70;;;2.40;;
60243;SDS011;46106;51.468;5.814;2023-03-16T04:23:46;3.85;;;2.83;;
60243;SDS011;46106;51.468;5.814;2023-03-16T04:26:12;7.13;;;2.75;;
60243;SDS011;46106;51.468;5.814;2023-03-16T04:28:38;5.88;;;2.50;;
60243;SDS011;46106;51.468;5.814;2023-03-16T04:31:04;6.18;;;2.33;;
60243;SDS011;46106;51.468;5.814;2023-03-16T04:33:33;3.13;;;2.42;;
60243;SDS011;46106;51.468;5.814;2023-03-16T04:35:59;5.10;;;2.30;;
60243;SDS011;46106;51.468;5.814;2023-03-16T04:38:26;3.75;;;2.53;;
60243;SDS011;46106;51.468;5.814;2023-03-16T04:40:57;4.95;;;2.35;;
60243;SDS011;46106;51.468;5.814;2023-03-16T04:43:27;4.03;;;2.17;;
60243;SDS011;46106;51.468;5.814;2023-03-16T04:45:53;4.00;;;2.63;;
60243;SDS011;46106;51.468;5.814;2023-03-16T04:48:18;4.20;;;2.80;;
60243;SDS011;46106;51.468;5.814;2023-03-16T04:50:44;7.13;;;2.40;;
60243;SDS011;46106;51.468;5.814;2023-03-16T04:53:10;5.18;;;2.55;;
60243;SDS011;46106;51.468;5.814;2023-03-16T04:55:35;3.75;;;2.67;;
60243;SDS011;46106;51.468;5.814;2023-03-16T04:58:00;5.38;;;2.70;;
60243;SDS011;46106;51.468;5.814;2023-03-16T05:00:29;3.13;;;2.20;;
60243;SDS011;46106;51.468;5.814;2023-03-16T05:02:54;5.47;;;2.88;;
60243;SDS011;46106;51.468;5.814;2023-03-16T05:05:20;5.13;;;2.30;;
60243;SDS011;46106;51.468;5.814;2023-03-16T05:07:46;4.18;;;2.40;;
60243;SDS011;46106;51.468;5.814;2023-03-16T05:10:13;7.97;;;2.58;;
60243;SDS011;46106;51.468;5.814;2023-03-16T05:12:38;3.42;;;2.30;;
60243;SDS011;46106;51.468;5.814;2023-03-16T05:15:04;5.47;;;2.60;;
60243;SDS011;46106;51.468;5.814;2023-03-16T05:17:30;4.07;;;2.40;;
60243;SDS011;46106;51.468;5.814;2023-03-16T05:19:56;6.07;;;3.17;;
60243;SDS011;46106;51.468;5.814;2023-03-16T05:22:22;4.97;;;2.80;;
60243;SDS011;46106;51.468;5.814;2023-03-16T05:24:48;8.38;;;2.70;;
60243;SDS011;46106;51.468;5.814;2023-03-16T05:27:13;5.75;;;2.30;;
60243;SDS011;46106;51.468;5.814;2023-03-16T05:29:39;4.68;;;3.05;;
60243;SDS011;46106;51.468;5.814;2023-03-16T05:32:05;12.00;;;2.80;;
60243;SDS011;46106;51.468;5.814;2023-03-16T05:34:30;8.77;;;2.80;;
60243;SDS011;46106;51.468;5.814;2023-03-16T05:36:56;4.43;;;2.70;;
60243;SDS011;46106;51.468;5.814;2023-03-16T05:39:22;7.03;;;2.80;;
60243;SDS011;46106;51.468;5.814;2023-03-16T05:41:48;5.90;;;2.63;;
60243;SDS011;46106;51.468;5.814;2023-03-16T05:44:13;3.90;;;2.40;;
60243;SDS011;46106;51.468;5.814;2023-03-16T05:46:39;5.88;;;2.35;;
60243;SDS011;46106;51.468;5.814;2023-03-16T05:49:06;3.90;;;2.40;;
60243;SDS011;46106;51.468;5.814;2023-03-16T05:51:33;4.88;;;2.55;;
60243;SDS011;46106;51.468;5.814;2023-03-16T05:53:58;8.20;;;3.05;;
60243;SDS011;46106;51.468;5.814;2023-03-16T05:56:24;8.20;;;3.17;;
60243;SDS011;46106;51.468;5.814;2023-03-16T05:58:53;6.60;;;2.90;;
60243;SDS011;46106;51.468;5.814;2023-03-16T06:01:20;4.93;;;3.22;;
60243;SDS011;46106;51.468;5.814;2023-03-16T06:03:46;6.20;;;2.63;;
60243;SDS011;46106;51.468;5.814;2023-03-16T06:06:17;4.35;;;2.85;;
60243;SDS011;46106;51.468;5.814;2023-03-16T06:08:43;3.83;;;2.53;;
60243;SDS011;46106;51.468;5.814;2023-03-16T06:11:09;7.78;;;2.95;;
60243;SDS011;46106;51.468;5.814;2023-03-16T06:13:35;4.20;;;2.70;;
60243;SDS011;46106;51.468;5.814;2023-03-16T06:16:02;4.07;;;2.67;;
60243;SDS011;46106;51.468;5.814;2023-03-16T06:18:28;5.07;;;2.92;;
60243;SDS011;46106;51.468;5.814;2023-03-16T06:20:53;5.75;;;3.20;;
60243;SDS011;46106;51.468;5.814;2023-03-16T06:23:22;3.40;;;2.55;;
60243;SDS011;46106;51.468;5.814;2023-03-16T06:25:47;4.57;;;2.35;;
60243;SDS011;46106;51.468;5.814;2023-03-16T06:28:13;5.05;;;3.35;;
60243;SDS011;46106;51.468;5.814;2023-03-16T06:30:39;7.47;;;3.47;;
60243;SDS011;46106;51.468;5.814;2023-03-16T06:33:05;5.20;;;3.40;;
60243;SDS011;46106;51.468;5.814;2023-03-16T06:35:31;7.07;;;3.50;;
60243;SDS011;46106;51.468;5.814;2023-03-16T06:37:57;6.20;;;3.25;;
60243;SDS011;46106;51.468;5.814;2023-03-16T06:40:23;6.53;;;3.20;;
60243;SDS011;46106;51.468;5.814;2023-03-16T06:42:49;6.88;;;3.15;;
60243;SDS011;46106;51.468;5.814;2023-03-16T06:45:14;9.18;;;4.00;;
60243;SDS011;46106;51.468;5.814;2023-03-16T06:47:45;7.10;;;3.53;;
60243;SDS011;46106;51.468;5.814;2023-03-16T06:50:11;9.98;;;3.83;;
60243;SDS011;46106;51.468;5.814;2023-03-16T06:52:36;7.43;;;3.53;;
60243;SDS011;46106;51.468;5.814;2023-03-16T06:55:02;10.50;;;3.80;;
60243;SDS011;46106;51.468;5.814;2023-03-16T06:57:28;6.82;;;3.53;;
60243;SDS011;46106;51.468;5.814;2023-03-16T06:59:53;7.90;;;3.60;;
60243;SDS011;46106;51.468;5.814;2023-03-16T07:02:22;6.68;;;4.25;;
60243;SDS011;46106;51.468;5.814;2023-03-16T07:04:48;8.88;;;4.45;;
60243;SDS011;46106;51.468;5.814;2023-03-16T07:07:14;9.02;;;3.50;;
60243;SDS011;46106;51.468;5.814;2023-03-16T07:09:41;6.65;;;3.67;;
60243;SDS011;46106;51.468;5.814;2023-03-16T07:17:11;3.25;;;2.78;;
60243;SDS011;46106;51.468;5.814;2023-03-16T07:19:37;8.88;;;3.05;;
60243;SDS011;46106;51.468;5.814;2023-03-16T07:22:03;8.13;;;3.70;;
60243;SDS011;46106;51.468;5.814;2023-03-16T07:24:28;7.53;;;3.60;;
60243;SDS011;46106;51.468;5.814;2023-03-16T07:26:53;4.18;;;3.45;;
60243;SDS011;46106;51.468;5.814;2023-03-16T07:29:19;5.88;;;3.67;;
60243;SDS011;46106;51.468;5.814;2023-03-16T07:31:44;5.00;;;3.13;;
60243;SDS011;46106;51.468;5.814;2023-03-16T07:34:10;5.13;;;3.63;;
60243;SDS011;46106;51.468;5.814;2023-03-16T07:36:36;3.92;;;2.97;;
60243;SDS011;46106;51.468;5.814;2023-03-16T07:39:02;10.38;;;3.50;;
60243;SDS011;46106;51.468;5.814;2023-03-16T07:41:28;4.03;;;2.38;;
60243;SDS011;46106;51.468;5.814;2023-03-16T07:43:53;4.05;;;3.30;;
60243;SDS011;46106;51.468;5.814;2023-03-16T07:46:19;7.72;;;3.28;;
60243;SDS011;46106;51.468;5.814;2023-03-16T07:48:45;5.38;;;3.78;;
60243;SDS011;46106;51.468;5.814;2023-03-16T07:51:11;5.00;;;3.03;;
60243;SDS011;46106;51.468;5.814;2023-03-16T07:53:37;7.03;;;3.20;;
60243;SDS011;46106;51.468;5.814;2023-03-16T07:56:04;7.78;;;3.53;;
60243;SDS011;46106;51.468;5.814;2023-03-16T07:58:30;9.23;;;3.33;;
60243;SDS011;46106;51.468;5.814;2023-03-16T08:00:56;8.70;;;3.25;;
60243;SDS011;46106;51.468;5.814;2023-03-16T08:03:23;7.40;;;3.75;;
60243;SDS011;46106;51.468;5.814;2023-03-16T08:05:53;9.82;;;3.35;;
60243;SDS011;46106;51.468;5.814;2023-03-16T08:08:22;6.00;;;3.45;;
60243;SDS011;46106;51.468;5.814;2023-03-16T08:10:48;4.13;;;3.45;;
60243;SDS011;46106;51.468;5.814;2023-03-16T08:13:16;5.50;;;3.55;;
60243;SDS011;46106;51.468;5.814;2023-03-16T08:15:46;5.28;;;3.55;;
60243;SDS011;46106;51.468;5.814;2023-03-16T08:18:26;7.28;;;3.65;;
60243;SDS011;46106;51.468;5.814;2023-03-16T08:20:54;9.02;;;3.08;;
60243;SDS011;46106;51.468;5.814;2023-03-16T08:23:22;5.38;;;2.92;;
60243;SDS011;46106;51.468;5.814;2023-03-16T08:25:52;7.28;;;3.47;;
60243;SDS011;46106;51.468;5.814;2023-03-16T08:28:22;5.55;;;2.40;;
60243;SDS011;46106;51.468;5.814;2023-03-16T08:30:50;5.38;;;2.35;;
60243;SDS011;46106;51.468;5.814;2023-03-16T08:33:17;4.88;;;2.60;;
60243;SDS011;46106;51.468;5.814;2023-03-16T08:38:12;9.43;;;2.80;;
60243;SDS011;46106;51.468;5.814;2023-03-16T08:40:40;4.50;;;2.22;;
60243;SDS011;46106;51.468;5.814;2023-03-16T08:43:06;5.28;;;2.40;;
60243;SDS011;46106;51.468;5.814;2023-03-16T08:45:32;2.30;;;1.75;;
60243;SDS011;46106;51.468;5.814;2023-03-16T08:47:59;5.00;;;2.00;;
60243;SDS011;46106;51.468;5.814;2023-03-16T08:50:24;6.50;;;2.42;;
60243;SDS011;46106;51.468;5.814;2023-03-16T08:52:51;5.93;;;2.08;;
60243;SDS011;46106;51.468;5.814;2023-03-16T08:55:17;3.75;;;2.10;;
60243;SDS011;46106;51.468;5.814;2023-03-16T08:57:43;3.97;;;2.28;;
60243;SDS011;46106;51.468;5.814;2023-03-16T09:00:09;5.68;;;2.55;;
60243;SDS011;46106;51.468;5.814;2023-03-16T09:02:39;4.75;;;2.22;;
60243;SDS011;46106;51.468;5.814;2023-03-16T09:05:07;4.05;;;2.00;;
60243;SDS011;46106;51.468;5.814;2023-03-16T09:10:09;2.53;;;1.70;;
60243;SDS011;46106;51.468;5.814;2023-03-16T09:12:40;3.08;;;1.75;;
60243;SDS011;46106;51.468;5.814;2023-03-16T09:17:41;6.22;;;1.95;;
60243;SDS011;46106;51.468;5.814;2023-03-16T09:20:09;6.00;;;2.15;;
60243;SDS011;46106;51.468;5.814;2023-03-16T09:25:11;4.78;;;1.60;;
60243;SDS011;46106;51.468;5.814;2023-03-16T09:27:36;5.22;;;1.90;;
60243;SDS011;46106;51.468;5.814;2023-03-16T09:30:03;3.95;;;1.83;;
60243;SDS011;46106;51.468;5.814;2023-03-16T09:32:29;2.72;;;1.70;;
60243;SDS011;46106;51.468;5.814;2023-03-16T09:34:55;2.63;;;1.80;;
60243;SDS011;46106;51.468;5.814;2023-03-16T09:47:59;3.42;;;1.75;;
60243;SDS011;46106;51.468;5.814;2023-03-16T09:50:30;4.70;;;1.65;;
60243;SDS011;46106;51.468;5.814;2023-03-16T09:53:04;8.00;;;2.00;;
60243;SDS011;46106;51.468;5.814;2023-03-16T10:01:10;9.30;;;2.55;;
60243;SDS011;46106;51.468;5.814;2023-03-16T10:16:36;6.55;;;1.83;;
60243;SDS011;46106;51.468;5.814;2023-03-16T10:30:47;4.22;;;1.20;;
60243;SDS011;46106;51.468;5.814;2023-03-16T10:53:56;4.00;;;1.75;;
60243;SDS011;46106;51.468;5.814;2023-03-16T10:56:32;5.80;;;1.55;;
60243;SDS011;46106;51.468;5.814;2023-03-16T10:59:11;4.20;;;1.40;;
60243;SDS011;46106;51.468;5.814;2023-03-16T11:01:42;4.15;;;1.45;;
60243;SDS011;46106;51.468;5.814;2023-03-16T11:09:47;4.55;;;1.40;;
60243;SDS011;46106;51.468;5.814;2023-03-16T11:12:13;4.70;;;1.80;;
60243;SDS011;46106;51.468;5.814;2023-03-16T11:14:43;7.43;;;1.58;;
60243;SDS011;46106;51.468;5.814;2023-03-16T11:17:10;4.90;;;1.50;;
60243;SDS011;46106;51.468;5.814;2023-03-16T11:27:36;3.15;;;1.65;;
60243;SDS011;46106;51.468;5.814;2023-03-16T11:33:08;4.20;;;1.63;;
60243;SDS011;46106;51.468;5.814;2023-03-16T11:35:43;2.65;;;1.20;;
60243;SDS011;46106;51.468;5.814;2023-03-16T11:38:24;4.30;;;1.73;;
60243;SDS011;46106;51.468;5.814;2023-03-16T11:41:19;4.78;;;1.33;;
60243;SDS011;46106;51.468;5.814;2023-03-16T11:46:41;6.63;;;1.40;;
60243;SDS011;46106;51.468;5.814;2023-03-16T12:10:58;4.65;;;1.20;;
60243;SDS011;46106;51.468;5.814;2023-03-16T12:16:22;1.73;;;0.90;;
60243;SDS011;46106;51.468;5.814;2023-03-16T12:19:14;4.82;;;1.13;;
60243;SDS011;46106;51.468;5.814;2023-03-16T12:21:46;5.05;;;1.25;;
60243;SDS011;46106;51.468;5.814;2023-03-16T12:24:22;3.80;;;1.48;;
60243;SDS011;46106;51.468;5.814;2023-03-16T12:26:52;4.88;;;1.20;;
60243;SDS011;46106;51.468;5.814;2023-03-16T12:29:32;3.72;;;1.33;;
60243;SDS011;46106;51.468;5.814;2023-03-16T12:35:02;2.85;;;1.10;;
60243;SDS011;46106;51.468;5.814;2023-03-16T12:40:39;3.85;;;1.00;;
60243;SDS011;46106;51.468;5.814;2023-03-16T12:46:13;2.92;;;1.10;;
60243;SDS011;46106;51.468;5.814;2023-03-16T12:48:44;2.17;;;1.08;;
60243;SDS011;46106;51.468;5.814;2023-03-16T12:51:13;3.05;;;1.20;;
60243;SDS011;46106;51.468;5.814;2023-03-16T12:53:43;3.72;;;1.08;;
60243;SDS011;46106;51.468;5.814;2023-03-16T12:56:17;5.60;;;1.05;;
60243;SDS011;46106;51.468;5.814;2023-03-16T12:58:49;4.13;;;1.00;;
60243;SDS011;46106;51.468;5.814;2023-03-16T13:01:18;5.60;;;1.10;;
60243;SDS011;46106;51.468;5.814;2023-03-16T13:03:49;3.40;;;1.05;;
60243;SDS011;46106;51.468;5.814;2023-03-16T13:06:24;1.90;;;1.08;;
60243;SDS011;46106;51.468;5.814;2023-03-16T13:08:56;1.58;;;0.90;;
60243;SDS011;46106;51.468;5.814;2023-03-16T13:11:24;3.72;;;1.67;;
60243;SDS011;46106;51.468;5.814;2023-03-16T13:16:32;3.85;;;0.93;;
60243;SDS011;46106;51.468;5.814;2023-03-16T13:22:27;6.40;;;0.90;;
60243;SDS011;46106;51.468;5.814;2023-03-16T13:25:17;5.60;;;1.05;;
60243;SDS011;46106;51.468;5.814;2023-03-16T13:27:53;4.18;;;1.45;;
60243;SDS011;46106;51.468;5.814;2023-03-16T13:32:51;4.65;;;1.10;;
60243;SDS011;46106;51.468;5.814;2023-03-16T13:35:18;4.75;;;1.20;;
60243;SDS011;46106;51.468;5.814;2023-03-16T13:37:45;2.90;;;1.15;;
60243;SDS011;46106;51.468;5.814;2023-03-16T13:40:15;7.15;;;0.90;;
60243;SDS011;46106;51.468;5.814;2023-03-16T13:42:49;4.45;;;0.90;;
60243;SDS011;46106;51.468;5.814;2023-03-16T13:45:22;4.82;;;1.20;;
60243;SDS011;46106;51.468;5.814;2023-03-16T13:47:52;1.92;;;0.90;;
60243;SDS011;46106;51.468;5.814;2023-03-16T13:50:18;3.22;;;0.90;;
60243;SDS011;46106;51.468;5.814;2023-03-16T13:52:52;1.75;;;1.15;;
60243;SDS011;46106;51.468;5.814;2023-03-16T13:55:29;3.80;;;0.75;;
60243;SDS011;46106;51.468;5.814;2023-03-16T13:57:56;4.07;;;0.82;;
60243;SDS011;46106;51.468;5.814;2023-03-16T14:00:28;1.85;;;0.95;;
60243;SDS011;46106;51.468;5.814;2023-03-16T14:02:57;4.78;;;0.95;;
60243;SDS011;46106;51.468;5.814;2023-03-16T14:05:29;2.45;;;0.80;;
60243;SDS011;46106;51.468;5.814;2023-03-16T14:07:57;8.77;;;1.00;;
60243;SDS011;46106;51.468;5.814;2023-03-16T14:10:29;2.55;;;0.80;;
60243;SDS011;46106;51.468;5.814;2023-03-16T14:13:05;1.77;;;0.90;;
60243;SDS011;46106;51.468;5.814;2023-03-16T14:16:00;3.88;;;1.20;;
60243;SDS011;46106;51.468;5.814;2023-03-16T14:18:35;3.83;;;0.90;;
60243;SDS011;46106;51.468;5.814;2023-03-16T14:21:07;2.30;;;0.80;;
60243;SDS011;46106;51.468;5.814;2023-03-16T14:23:35;2.70;;;0.90;;
60243;SDS011;46106;51.468;5.814;2023-03-16T14:26:11;1.50;;;0.80;;
60243;SDS011;46106;51.468;5.814;2023-03-16T14:28:39;2.30;;;0.88;;
60243;SDS011;46106;51.468;5.814;2023-03-16T14:31:10;3.20;;;1.08;;
60243;SDS011;46106;51.468;5.814;2023-03-16T14:33:40;3.42;;;1.08;;
60243;SDS011;46106;51.468;5.814;2023-03-16T14:36:17;1.10;;;0.80;;
60243;SDS011;46106;51.468;5.814;2023-03-16T14:38:44;4.82;;;0.98;;
60243;SDS011;46106;51.468;5.814;2023-03-16T14:41:28;1.80;;;0.80;;
60243;SDS011;46106;51.468;5.814;2023-03-16T14:43:56;2.78;;;0.82;;
60243;SDS011;46106;51.468;5.814;2023-03-16T14:46:30;1.75;;;0.80;;
60243;SDS011;46106;51.468;5.814;2023-03-16T14:49:08;3.65;;;1.30;;
60243;SDS011;46106;51.468;5.814;2023-03-16T14:51:47;5.47;;;1.13;;
60243;SDS011;46106;51.468;5.814;2023-03-16T14:54:15;5.32;;;0.95;;
60243;SDS011;46106;51.468;5.814;2023-03-16T14:56:42;2.00;;;0.82;;
60243;SDS011;46106;51.468;5.814;2023-03-16T14:59:13;4.95;;;1.00;;
60243;SDS011;46106;51.468;5.814;2023-03-16T15:01:38;3.97;;;1.00;;
60243;SDS011;46106;51.468;5.814;2023-03-16T15:04:04;5.13;;;0.90;;
60243;SDS011;46106;51.468;5.814;2023-03-16T15:06:31;3.22;;;0.80;;
60243;SDS011;46106;51.468;5.814;2023-03-16T15:08:58;1.83;;;0.70;;
60243;SDS011;46106;51.468;5.814;2023-03-16T15:11:24;1.77;;;0.65;;
60243;SDS011;46106;51.468;5.814;2023-03-16T15:13:50;3.28;;;0.85;;
60243;SDS011;46106;51.468;5.814;2023-03-16T15:16:18;3.83;;;0.98;;
60243;SDS011;46106;51.468;5.814;2023-03-16T15:18:45;2.75;;;0.82;;
60243;SDS011;46106;51.468;5.814;2023-03-16T15:21:16;2.67;;;0.73;;
60243;SDS011;46106;51.468;5.814;2023-03-16T15:23:44;2.45;;;0.82;;
60243;SDS011;46106;51.468;5.814;2023-03-16T15:26:12;5.50;;;1.10;;
60243;SDS011;46106;51.468;5.814;2023-03-16T15:28:38;2.47;;;0.70;;
60243;SDS011;46106;51.468;5.814;2023-03-16T15:31:04;5.97;;;0.90;;
60243;SDS011;46106;51.468;5.814;2023-03-16T15:33:30;3.13;;;0.85;;
60243;SDS011;46106;51.468;5.814;2023-03-16T15:35:57;2.00;;;0.70;;
60243;SDS011;46106;51.468;5.814;2023-03-16T15:43:32;6.70;;;0.77;;
60243;SDS011;46106;51.468;5.814;2023-03-16T15:45:57;2.42;;;0.93;;
60243;SDS011;46106;51.468;5.814;2023-03-16T15:48:26;3.47;;;0.80;;
60243;SDS011;46106;51.468;5.814;2023-03-16T15:50:53;3.25;;;0.80;;
60243;SDS011;46106;51.468;5.814;2023-03-16T15:55:58;3.95;;;1.35;;
60243;SDS011;46106;51.468;5.814;2023-03-16T15:58:27;6.90;;;1.10;;
60243;SDS011;46106;51.468;5.814;2023-03-16T16:00:55;4.30;;;1.75;;
60243;SDS011;46106;51.468;5.814;2023-03-16T16:03:23;2.72;;;0.95;;
60243;SDS011;46106;51.468;5.814;2023-03-16T16:05:50;1.38;;;0.85;;
60243;SDS011;46106;51.468;5.814;2023-03-16T16:08:17;1.88;;;0.90;;
60243;SDS011;46106;51.468;5.814;2023-03-16T16:10:43;4.45;;;1.60;;
60243;SDS011;46106;51.468;5.814;2023-03-16T16:13:12;3.10;;;1.20;;
60243;SDS011;46106;51.468;5.814;2023-03-16T16:15:42;5.28;;;0.80;;
60243;SDS011;46106;51.468;5.814;2023-03-16T16:18:51;1.35;;;0.90;;
60243;SDS011;46106;51.468;5.814;2023-03-16T16:21:01;3.10;;;1.20;;
60243;SDS011;46106;51.468;5.814;2023-03-16T16:23:28;2.60;;;1.60;;
60243;SDS011;46106;51.468;5.814;2023-03-16T16:25:57;2.17;;;1.08;;
60243;SDS011;46106;51.468;5.814;2023-03-16T16:28:30;2.72;;;1.15;;
60243;SDS011;46106;51.468;5.814;2023-03-16T16:30:57;2.58;;;1.00;;
60243;SDS011;46106;51.468;5.814;2023-03-16T16:36:00;3.88;;;1.25;;
60243;SDS011;46106;51.468;5.814;2023-03-16T16:38:27;4.88;;;0.90;;
60243;SDS011;46106;51.468;5.814;2023-03-16T16:40:54;3.50;;;0.90;;
60243;SDS011;46106;51.468;5.814;2023-03-16T16:45:57;3.05;;;1.00;;
60243;SDS011;46106;51.468;5.814;2023-03-16T16:48:32;3.73;;;1.40;;
60243;SDS011;46106;51.468;5.814;2023-03-16T16:51:01;5.67;;;1.10;;
60243;SDS011;46106;51.468;5.814;2023-03-16T16:53:27;3.40;;;1.10;;
60243;SDS011;46106;51.468;5.814;2023-03-16T16:55:54;1.67;;;0.90;;
60243;SDS011;46106;51.468;5.814;2023-03-16T16:58:20;2.25;;;0.90;;
60243;SDS011;46106;51.468;5.814;2023-03-16T17:00:53;3.33;;;1.20;;
60243;SDS011;46106;51.468;5.814;2023-03-16T17:03:25;5.35;;;1.23;;
60243;SDS011;46106;51.468;5.814;2023-03-16T17:05:52;3.95;;;1.00;;
60243;SDS011;46106;51.468;5.814;2023-03-16T17:08:20;2.95;;;0.82;;
60243;SDS011;46106;51.468;5.814;2023-03-16T17:10:46;2.25;;;0.90;;
60243;SDS011;46106;51.468;5.814;2023-03-16T17:13:31;1.50;;;0.80;;
60243;SDS011;46106;51.468;5.814;2023-03-16T17:16:03;4.18;;;0.80;;
60243;SDS011;46106;51.468;5.814;2023-03-16T17:18:30;2.70;;;0.85;;
60243;SDS011;46106;51.468;5.814;2023-03-16T17:20:57;3.40;;;1.10;;
60243;SDS011;46106;51.468;5.814;2023-03-16T17:23:30;2.28;;;0.73;;
60243;SDS011;46106;51.468;5.814;2023-03-16T17:26:02;6.30;;;1.10;;
60243;SDS011;46106;51.468;5.814;2023-03-16T17:31:45;3.72;;;0.85;;
60243;SDS011;46106;51.468;5.814;2023-03-16T17:34:15;4.75;;;1.38;;
60243;SDS011;46106;51.468;5.814;2023-03-16T17:36:42;2.05;;;0.90;;